sensor_id;sensor_type;location;lat;lon;timestamp;P1;durP1;ratioP1;P2;durP2;ratioP2
8401;SDS011;4238;48.404;9.498;2023-04-06T05:46:05;12.20;;;9.53;;
8401;SDS011;4238;48.404;9.498;2023-04-06T05:48:33;13.90;;;9.40;;
8401;SDS011;4238;48.404;9.498;2023-04-06T05:51:00;12.83;;;9.90;;
8401;SDS011;4238;48.404;9.498;2023-04-06T05:53:31;14.17;;;9.77;;
8401;SDS011;4238;48.404;9.498;2023-04-06T05:56:00;10.93;;;9.30;;
8401;SDS011;4238;48.404;9.498;2023-04-06T05:58:27;12.63;;;8.67;;
8401;SDS011;4238;48.404;9.498;2023-04-06T06:00:56;12.73;;;8.67;;
8401;SDS011;4238;48.404;9.498;2023-04-06T06:03:25;12.70;;;9.23;;
8401;SDS011;4238;48.404;9.498;2023-04-06T06:05:52;11.20;;;8.37;;
8401;SDS011;4238;48.404;9.498;2023-04-06T06:08:19;11.87;;;9.33;;
8401;SDS011;4238;48.404;9.498;2023-04-06T06:10:46;9.40;;;8.40;;
8401;SDS011;4238;48.404;9.498;2023-04-06T06:13:13;11.10;;;9.90;;
8401;SDS011;4238;48.404;9.498;2023-04-06T06:15:41;15.23;;;8.33;;
8401;SDS011;4238;48.404;9.498;2023-04-06T06:18:08;9.97;;;8.80;;
8401;SDS011;4238;48.404;9.498;2023-04-06T06:20:37;11.33;;;9.40;;
8401;SDS011;4238;48.404;9.498;2023-04-06T06:23:04;12.93;;;9.10;;
8401;SDS011;4238;48.404;9.498;2023-04-06T06:25:31;11.80;;;8.67;;
8401;SDS011;4238;48.404;9.498;2023-04-06T06:27:58;12.53;;;10.03;;
8401;SDS011;4238;48.404;9.498;2023-04-06T06:30:26;12.23;;;9.93;;
8401;SDS011;4238;48.404;9.498;2023-04-06T06:32:52;11.83;;;9.67;;
8401;SDS011;4238;48.404;9.498;2023-04-06T06:35:19;12.63;;;9.90;;
8401;SDS011;4238;48.404;9.498;2023-04-06T06:37:48;12.50;;;11.20;;
8401;SDS011;4238;48.404;9.498;2023-04-06T06:40:15;13.10;;;11.27;;
8401;SDS011;4238;48.404;9.498;2023-04-06T06:42:43;11.57;;;10.23;;
8401;SDS011;4238;48.404;9.498;2023-04-06T06:45:10;11.13;;;9.03;;
8401;SDS011;4238;48.404;9.498;2023-04-06T06:47:37;11.73;;;10.03;;
8401;SDS011;4238;48.404;9.498;2023-04-06T06:50:04;11.83;;;9.00;;
8401;SDS011;4238;48.404;9.498;2023-04-06T06:52:32;11.43;;;9.23;;
8401;SDS011;4238;48.404;9.498;2023-04-06T06:55:00;12.10;;;9.50;;
8401;SDS011;4238;48.404;9.498;2023-04-06T06:57:27;12.30;;;10.13;;
8401;SDS011;4238;48.404;9.498;2023-04-06T06:59:54;10.77;;;9.53;;
8401;SDS011;4238;48.404;9.498;2023-04-06T07:02:21;13.90;;;10.63;;
8401;SDS011;4238;48.404;9.498;2023-04-06T07:04:48;12.17;;;9.87;;
8401;SDS011;4238;48.404;9.498;2023-04-06T07:07:15;13.63;;;10.90;;
8401;SDS011;4238;48.404;9.498;2023-04-06T07:09:42;15.07;;;12.03;;
8401;SDS011;4238;48.404;9.498;2023-04-06T07:12:11;14.27;;;11.80;;
8401;SDS011;4238;48.404;9.498;2023-04-06T07:14:38;14.40;;;12.40;;
8401;SDS011;4238;48.404;9.498;2023-04-06T07:17:05;18.13;;;11.87;;
8401;SDS011;4238;48.404;9.498;2023-04-06T07:19:32;14.77;;;12.07;;
8401;SDS011;4238;48.404;9.498;2023-04-06T07:22:00;13.77;;;11.27;;
8401;SDS011;4238;48.404;9.498;2023-04-06T07:24:27;12.73;;;10.97;;
8401;SDS011;4238;48.404;9.498;2023-04-06T07:26:54;11.40;;;10.03;;
8401;SDS011;4238;48.404;9.498;2023-04-06T07:29:23;9.90;;;8.63;;
8401;SDS011;4238;48.404;9.498;2023-04-06T07:31:50;9.50;;;8.40;;
8401;SDS011;4238;48.404;9.498;2023-04-06T07:34:17;9.73;;;8.67;;
8401;SDS011;4238;48.404;9.498;2023-04-06T07:36:44;8.93;;;7.10;;
8401;SDS011;4238;48.404;9.498;2023-04-06T07:39:11;8.93;;;8.03;;
8401;SDS011;4238;48.404;9.498;2023-04-06T07:41:38;9.67;;;7.57;;
8401;SDS011;4238;48.404;9.498;2023-04-06T07:44:05;12.40;;;10.60;;
8401;SDS011;4238;48.404;9.498;2023-04-06T07:46:34;11.00;;;9.20;;
8401;SDS011;4238;48.404;9.498;2023-04-06T07:49:01;10.93;;;9.83;;
8401;SDS011;4238;48.404;9.498;2023-04-06T07:51:28;11.33;;;10.03;;
8401;SDS011;4238;48.404;9.498;2023-04-06T07:53:56;13.77;;;10.17;;
8401;SDS011;4238;48.404;9.498;2023-04-06T07:56:23;11.03;;;10.03;;
8401;SDS011;4238;48.404;9.498;2023-04-06T07:58:50;9.80;;;8.80;;
8401;SDS011;4238;48.404;9.498;2023-04-06T08:01:17;9.23;;;8.23;;
8401;SDS011;4238;48.404;9.498;2023-04-06T08:03:45;9.57;;;8.63;;
8401;SDS011;4238;48.404;9.498;2023-04-06T08:06:12;9.20;;;7.57;;
8401;SDS011;4238;48.404;9.498;2023-04-06T08:08:39;8.50;;;7.70;;
8401;SDS011;4238;48.404;9.498;2023-04-06T08:11:07;8.03;;;7.23;;
8401;SDS011;4238;48.404;9.498;2023-04-06T08:13:34;8.50;;;7.60;;
8401;SDS011;4238;48.404;9.498;2023-04-06T08:16:01;8.53;;;7.43;;
8401;SDS011;4238;48.404;9.498;2023-04-06T08:18:28;8.13;;;7.33;;
8401;SDS011;4238;48.404;9.498;2023-04-06T08:20:57;8.45;;;7.63;;
8401;SDS011;4238;48.404;9.498;2023-04-06T08:23:24;7.95;;;7.25;;
8401;SDS011;4238;48.404;9.498;2023-04-06T08:25:51;8.15;;;6.68;;
8401;SDS011;4238;48.404;9.498;2023-04-06T08:28:19;5.57;;;5.03;;
8401;SDS011;4238;48.404;9.498;2023-04-06T08:30:46;5.00;;;4.60;;
8401;SDS011;4238;48.404;9.498;2023-04-06T08:33:13;4.03;;;3.70;;
8401;SDS011;4238;48.404;9.498;2023-04-06T08:35:40;4.90;;;4.40;;
8401;SDS011;4238;48.404;9.498;2023-04-06T08:38:08;5.88;;;4.90;;
8401;SDS011;4238;48.404;9.498;2023-04-06T08:40:36;5.00;;;4.45;;
8401;SDS011;4238;48.404;9.498;2023-04-06T08:43:03;5.43;;;5.03;;
8401;SDS011;4238;48.404;9.498;2023-04-06T08:45:33;3.78;;;3.47;;
8401;SDS011;4238;48.404;9.498;2023-04-06T08:48:00;5.05;;;4.50;;
8401;SDS011;4238;48.404;9.498;2023-04-06T08:50:30;5.28;;;4.78;;
8401;SDS011;4238;48.404;9.498;2023-04-06T08:52:58;5.65;;;5.15;;
8401;SDS011;4238;48.404;9.498;2023-04-06T08:55:28;6.82;;;6.13;;
8401;SDS011;4238;48.404;9.498;2023-04-06T08:57:55;6.32;;;5.78;;
8401;SDS011;4238;48.404;9.498;2023-04-06T09:00:23;6.32;;;5.22;;
8401;SDS011;4238;48.404;9.498;2023-04-06T09:02:51;5.68;;;5.25;;
8401;SDS011;4238;48.404;9.498;2023-04-06T09:05:21;6.22;;;4.82;;
8401;SDS011;4238;48.404;9.498;2023-04-06T09:07:50;4.63;;;4.22;;
8401;SDS011;4238;48.404;9.498;2023-04-06T09:10:17;4.90;;;4.50;;
8401;SDS011;4238;48.404;9.498;2023-04-06T09:12:47;3.60;;;3.30;;
8401;SDS011;4238;48.404;9.498;2023-04-06T09:15:17;3.60;;;3.30;;
8401;SDS011;4238;48.404;9.498;2023-04-06T09:17:45;4.10;;;3.80;;
8401;SDS011;4238;48.404;9.498;2023-04-06T09:20:12;5.05;;;4.65;;
8401;SDS011;4238;48.404;9.498;2023-04-06T09:22:39;4.43;;;4.03;;
8401;SDS011;4238;48.404;9.498;2023-04-06T09:25:08;5.47;;;4.97;;
8401;SDS011;4238;48.404;9.498;2023-04-06T09:27:37;4.80;;;3.80;;
8401;SDS011;4238;48.404;9.498;2023-04-06T09:30:07;4.43;;;4.03;;
8401;SDS011;4238;48.404;9.498;2023-04-06T09:32:47;3.80;;;3.50;;
8401;SDS011;4238;48.404;9.498;2023-04-06T09:35:16;4.47;;;3.97;;
8401;SDS011;4238;48.404;9.498;2023-04-06T09:37:45;4.50;;;4.15;;
8401;SDS011;4238;48.404;9.498;2023-04-06T09:40:13;4.43;;;4.03;;
8401;SDS011;4238;48.404;9.498;2023-04-06T09:42:42;6.10;;;5.50;;
8401;SDS011;4238;48.404;9.498;2023-04-06T09:45:13;5.70;;;5.18;;
8401;SDS011;4238;48.404;9.498;2023-04-06T09:47:42;6.15;;;5.22;;
8401;SDS011;4238;48.404;9.498;2023-04-06T09:50:11;5.97;;;5.20;;
8401;SDS011;4238;48.404;9.498;2023-04-06T09:52:40;5.97;;;5.38;;
8401;SDS011;4238;48.404;9.498;2023-04-06T09:55:11;6.13;;;4.95;;
8401;SDS011;4238;48.404;9.498;2023-04-06T09:57:45;5.35;;;4.85;;
8401;SDS011;4238;48.404;9.498;2023-04-06T10:00:20;4.97;;;4.57;;
8401;SDS011;4238;48.404;9.498;2023-04-06T10:02:50;4.80;;;4.40;;
8401;SDS011;4238;48.404;9.498;2023-04-06T10:05:22;4.90;;;4.40;;
8401;SDS011;4238;48.404;9.498;2023-04-06T10:07:57;6.35;;;5.85;;
8401;SDS011;4238;48.404;9.498;2023-04-06T10:10:28;6.32;;;5.22;;
8401;SDS011;4238;48.404;9.498;2023-04-06T10:12:56;4.40;;;3.97;;
8401;SDS011;4238;48.404;9.498;2023-04-06T10:15:25;4.55;;;4.20;;
8401;SDS011;4238;48.404;9.498;2023-04-06T10:17:53;6.70;;;6.13;;
8401;SDS011;4238;48.404;9.498;2023-04-06T10:20:21;5.85;;;5.35;;
8401;SDS011;4238;48.404;9.498;2023-04-06T10:22:54;5.97;;;5.47;;
8401;SDS011;4238;48.404;9.498;2023-04-06T10:25:26;6.13;;;5.63;;
8401;SDS011;4238;48.404;9.498;2023-04-06T10:27:58;6.38;;;5.78;;
8401;SDS011;4238;48.404;9.498;2023-04-06T10:30:27;5.47;;;5.07;;
8401;SDS011;4238;48.404;9.498;2023-04-06T10:32:55;5.55;;;5.15;;
8401;SDS011;4238;48.404;9.498;2023-04-06T10:35:22;6.45;;;5.85;;
8401;SDS011;4238;48.404;9.498;2023-04-06T10:37:51;6.45;;;5.85;;
8401;SDS011;4238;48.404;9.498;2023-04-06T10:40:20;6.28;;;5.70;;
8401;SDS011;4238;48.404;9.498;2023-04-06T10:42:49;6.85;;;6.30;;
8401;SDS011;4238;48.404;9.498;2023-04-06T10:45:19;6.43;;;5.85;;
8401;SDS011;4238;48.404;9.498;2023-04-06T10:47:49;6.47;;;5.88;;
8401;SDS011;4238;48.404;9.498;2023-04-06T10:50:18;7.03;;;6.43;;
8401;SDS011;4238;48.404;9.498;2023-04-06T10:52:46;6.13;;;5.50;;
8401;SDS011;4238;48.404;9.498;2023-04-06T10:55:13;6.50;;;5.88;;
8401;SDS011;4238;48.404;9.498;2023-04-06T10:57:42;6.30;;;5.80;;
8401;SDS011;4238;48.404;9.498;2023-04-06T11:00:11;7.00;;;6.40;;
8401;SDS011;4238;48.404;9.498;2023-04-06T11:02:38;7.30;;;6.60;;
8401;SDS011;4238;48.404;9.498;2023-04-06T11:05:07;6.95;;;6.25;;
8401;SDS011;4238;48.404;9.498;2023-04-06T11:07:38;7.47;;;6.68;;
8401;SDS011;4238;48.404;9.498;2023-04-06T11:10:06;7.13;;;6.43;;
8401;SDS011;4238;48.404;9.498;2023-04-06T11:12:34;6.30;;;5.80;;
8401;SDS011;4238;48.404;9.498;2023-04-06T11:15:01;5.97;;;5.50;;
8401;SDS011;4238;48.404;9.498;2023-04-06T11:17:31;6.00;;;5.50;;
8401;SDS011;4238;48.404;9.498;2023-04-06T11:19:59;5.35;;;4.85;;
8401;SDS011;4238;48.404;9.498;2023-04-06T11:22:28;5.00;;;4.60;;
8401;SDS011;4238;48.404;9.498;2023-04-06T11:25:04;6.03;;;5.53;;
8401;SDS011;4238;48.404;9.498;2023-04-06T11:27:32;6.22;;;5.63;;
8401;SDS011;4238;48.404;9.498;2023-04-06T11:29:59;5.93;;;5.32;;
8401;SDS011;4238;48.404;9.498;2023-04-06T11:32:27;5.75;;;5.25;;
8401;SDS011;4238;48.404;9.498;2023-04-06T11:34:54;5.65;;;5.18;;
8401;SDS011;4238;48.404;9.498;2023-04-06T11:37:25;5.50;;;5.00;;
8401;SDS011;4238;48.404;9.498;2023-04-06T11:39:54;5.28;;;4.88;;
8401;SDS011;4238;48.404;9.498;2023-04-06T11:42:22;5.03;;;4.63;;
8401;SDS011;4238;48.404;9.498;2023-04-06T11:44:50;5.03;;;4.53;;
8401;SDS011;4238;48.404;9.498;2023-04-06T11:47:18;5.38;;;4.88;;
8401;SDS011;4238;48.404;9.498;2023-04-06T11:49:47;5.05;;;4.65;;
8401;SDS011;4238;48.404;9.498;2023-04-06T11:52:14;6.10;;;4.88;;
8401;SDS011;4238;48.404;9.498;2023-04-06T11:54:44;5.80;;;5.15;;
8401;SDS011;4238;48.404;9.498;2023-04-06T11:57:13;4.95;;;4.55;;
8401;SDS011;4238;48.404;9.498;2023-04-06T11:59:41;5.43;;;4.93;;
8401;SDS011;4238;48.404;9.498;2023-04-06T12:02:09;5.18;;;4.65;;
8401;SDS011;4238;48.404;9.498;2023-04-06T12:04:36;5.53;;;5.03;;
8401;SDS011;4238;48.404;9.498;2023-04-06T12:07:04;5.28;;;4.88;;
8401;SDS011;4238;48.404;9.498;2023-04-06T12:09:31;5.60;;;5.10;;
8401;SDS011;4238;48.404;9.498;2023-04-06T12:12:01;6.13;;;5.60;;
8401;SDS011;4238;48.404;9.498;2023-04-06T12:14:28;5.32;;;4.88;;
8401;SDS011;4238;48.404;9.498;2023-04-06T12:16:56;4.55;;;4.15;;
8401;SDS011;4238;48.404;9.498;2023-04-06T12:19:23;4.90;;;4.53;;
8401;SDS011;4238;48.404;9.498;2023-04-06T12:21:51;5.30;;;4.80;;
8401;SDS011;4238;48.404;9.498;2023-04-06T12:24:19;5.60;;;4.60;;
8401;SDS011;4238;48.404;9.498;2023-04-06T12:26:46;4.35;;;4.05;;
8401;SDS011;4238;48.404;9.498;2023-04-06T12:29:14;5.10;;;4.70;;
8401;SDS011;4238;48.404;9.498;2023-04-06T12:31:41;5.20;;;4.80;;
8401;SDS011;4238;48.404;9.498;2023-04-06T12:34:10;5.30;;;4.80;;
8401;SDS011;4238;48.404;9.498;2023-04-06T12:36:37;4.72;;;4.40;;
8401;SDS011;4238;48.404;9.498;2023-04-06T12:39:04;4.80;;;4.40;;
8401;SDS011;4238;48.404;9.498;2023-04-06T12:41:32;5.68;;;5.20;;
8401;SDS011;4238;48.404;9.498;2023-04-06T12:43:59;5.65;;;5.05;;
8401;SDS011;4238;48.404;9.498;2023-04-06T12:46:28;5.80;;;5.15;;
8401;SDS011;4238;48.404;9.498;2023-04-06T12:48:56;5.95;;;5.53;;
8401;SDS011;4238;48.404;9.498;2023-04-06T12:51:24;5.28;;;4.88;;
8401;SDS011;4238;48.404;9.498;2023-04-06T12:53:53;5.18;;;4.78;;
8401;SDS011;4238;48.404;9.498;2023-04-06T12:56:20;4.75;;;4.35;;
8401;SDS011;4238;48.404;9.498;2023-04-06T12:58:47;6.38;;;5.43;;
8401;SDS011;4238;48.404;9.498;2023-04-06T13:01:14;5.75;;;5.28;;
8401;SDS011;4238;48.404;9.498;2023-04-06T13:03:43;5.68;;;5.13;;
8401;SDS011;4238;48.404;9.498;2023-04-06T13:06:10;6.40;;;5.40;;
8401;SDS011;4238;48.404;9.498;2023-04-06T13:08:38;4.93;;;4.50;;
8401;SDS011;4238;48.404;9.498;2023-04-06T13:11:05;5.97;;;5.47;;
8401;SDS011;4238;48.404;9.498;2023-04-06T13:13:33;5.63;;;5.13;;
8401;SDS011;4238;48.404;9.498;2023-04-06T13:16:01;5.35;;;4.90;;
8401;SDS011;4238;48.404;9.498;2023-04-06T13:18:30;5.20;;;4.60;;
8401;SDS011;4238;48.404;9.498;2023-04-06T13:20:59;5.40;;;4.90;;
8401;SDS011;4238;48.404;9.498;2023-04-06T13:23:26;5.18;;;4.80;;
8401;SDS011;4238;48.404;9.498;2023-04-06T13:25:56;5.07;;;4.60;;
8401;SDS011;4238;48.404;9.498;2023-04-06T13:28:25;5.78;;;5.20;;
8401;SDS011;4238;48.404;9.498;2023-04-06T13:30:52;5.40;;;5.00;;
8401;SDS011;4238;48.404;9.498;2023-04-06T13:33:19;5.25;;;4.85;;
8401;SDS011;4238;48.404;9.498;2023-04-06T13:35:46;5.45;;;4.95;;
8401;SDS011;4238;48.404;9.498;2023-04-06T13:38:15;5.63;;;5.13;;
8401;SDS011;4238;48.404;9.498;2023-04-06T13:40:42;5.03;;;4.60;;
8401;SDS011;4238;48.404;9.498;2023-04-06T13:43:10;5.57;;;5.03;;
8401;SDS011;4238;48.404;9.498;2023-04-06T13:45:37;5.22;;;4.78;;
8401;SDS011;4238;48.404;9.498;2023-04-06T13:48:05;7.82;;;5.93;;
8401;SDS011;4238;48.404;9.498;2023-04-06T13:50:32;6.18;;;5.15;;
8401;SDS011;4238;48.404;9.498;2023-04-06T13:53:00;5.65;;;5.15;;
8401;SDS011;4238;48.404;9.498;2023-04-06T13:55:28;5.85;;;5.25;;
8401;SDS011;4238;48.404;9.498;2023-04-06T13:57:56;5.55;;;5.00;;
8401;SDS011;4238;48.404;9.498;2023-04-06T14:00:23;6.72;;;5.75;;
8401;SDS011;4238;48.404;9.498;2023-04-06T14:02:50;5.53;;;5.03;;
8401;SDS011;4238;48.404;9.498;2023-04-06T14:05:19;6.82;;;5.60;;
8401;SDS011;4238;48.404;9.498;2023-04-06T14:07:46;7.05;;;6.00;;
8401;SDS011;4238;48.404;9.498;2023-04-06T14:10:13;5.35;;;4.85;;
8401;SDS011;4238;48.404;9.498;2023-04-06T14:12:42;5.60;;;5.20;;
8401;SDS011;4238;48.404;9.498;2023-04-06T14:15:10;5.55;;;4.93;;
8401;SDS011;4238;48.404;9.498;2023-04-06T14:17:37;6.25;;;5.65;;
8401;SDS011;4238;48.404;9.498;2023-04-06T14:20:05;5.60;;;5.10;;
8401;SDS011;4238;48.404;9.498;2023-04-06T14:22:33;6.43;;;5.40;;
8401;SDS011;4238;48.404;9.498;2023-04-06T14:25:00;7.07;;;5.65;;
8401;SDS011;4238;48.404;9.498;2023-04-06T14:27:27;6.50;;;4.93;;
8401;SDS011;4238;48.404;9.498;2023-04-06T14:29:55;4.57;;;4.18;;
8401;SDS011;4238;48.404;9.498;2023-04-06T14:32:22;4.40;;;4.10;;
8401;SDS011;4238;48.404;9.498;2023-04-06T14:34:49;5.13;;;4.63;;
8401;SDS011;4238;48.404;9.498;2023-04-06T14:37:16;4.75;;;4.30;;
8401;SDS011;4238;48.404;9.498;2023-04-06T14:39:43;5.28;;;4.47;;
8401;SDS011;4238;48.404;9.498;2023-04-06T14:42:11;5.15;;;4.65;;
8401;SDS011;4238;48.404;9.498;2023-04-06T14:44:37;5.90;;;5.40;;
8401;SDS011;4238;48.404;9.498;2023-04-06T14:47:09;6.65;;;5.47;;
8401;SDS011;4238;48.404;9.498;2023-04-06T14:49:36;6.82;;;5.43;;
8401;SDS011;4238;48.404;9.498;2023-04-06T14:52:03;5.78;;;5.25;;
8401;SDS011;4238;48.404;9.498;2023-04-06T14:54:30;5.80;;;5.30;;
8401;SDS011;4238;48.404;9.498;2023-04-06T14:56:57;5.32;;;4.80;;
8401;SDS011;4238;48.404;9.498;2023-04-06T14:59:25;6.53;;;5.70;;
8401;SDS011;4238;48.404;9.498;2023-04-06T15:01:52;5.97;;;5.38;;
8401;SDS011;4238;48.404;9.498;2023-04-06T15:04:21;5.88;;;5.28;;
8401;SDS011;4238;48.404;9.498;2023-04-06T15:06:47;5.55;;;5.05;;
8401;SDS011;4238;48.404;9.498;2023-04-06T15:09:14;5.95;;;5.45;;
8401;SDS011;4238;48.404;9.498;2023-04-06T15:11:41;15.65;;;10.05;;
8401;SDS011;4238;48.404;9.498;2023-04-06T15:14:08;5.68;;;5.15;;
8401;SDS011;4238;48.404;9.498;2023-04-06T15:16:35;6.55;;;5.95;;
8401;SDS011;4238;48.404;9.498;2023-04-06T15:19:02;6.22;;;5.63;;
8401;SDS011;4238;48.404;9.498;2023-04-06T15:21:30;7.53;;;5.40;;
8401;SDS011;4238;48.404;9.498;2023-04-06T15:23:57;7.50;;;5.32;;
8401;SDS011;4238;48.404;9.498;2023-04-06T15:26:24;5.28;;;4.78;;
8401;SDS011;4238;48.404;9.498;2023-04-06T15:28:51;5.25;;;4.75;;
8401;SDS011;4238;48.404;9.498;2023-04-06T15:31:18;5.28;;;4.65;;
8401;SDS011;4238;48.404;9.498;2023-04-06T15:33:46;5.95;;;5.35;;
8401;SDS011;4238;48.404;9.498;2023-04-06T15:36:17;5.35;;;4.90;;
8401;SDS011;4238;48.404;9.498;2023-04-06T15:38:51;5.32;;;4.80;;
8401;SDS011;4238;48.404;9.498;2023-04-06T15:41:18;5.10;;;4.60;;
8401;SDS011;4238;48.404;9.498;2023-04-06T15:43:45;5.03;;;4.55;;
8401;SDS011;4238;48.404;9.498;2023-04-06T15:46:12;4.40;;;4.00;;
8401;SDS011;4238;48.404;9.498;2023-04-06T15:48:39;4.00;;;3.70;;
8401;SDS011;4238;48.404;9.498;2023-04-06T15:51:07;4.55;;;4.13;;
8401;SDS011;4238;48.404;9.498;2023-04-06T15:53:34;4.47;;;4.18;;
8401;SDS011;4238;48.404;9.498;2023-04-06T15:56:03;4.97;;;4.47;;
8401;SDS011;4238;48.404;9.498;2023-04-06T15:58:32;4.55;;;4.03;;
8401;SDS011;4238;48.404;9.498;2023-04-06T16:00:59;4.78;;;3.92;;
8401;SDS011;4238;48.404;9.498;2023-04-06T16:03:27;4.75;;;4.32;;
8401;SDS011;4238;48.404;9.498;2023-04-06T16:05:54;4.25;;;3.90;;
8401;SDS011;4238;48.404;9.498;2023-04-06T16:08:21;5.63;;;4.90;;
8401;SDS011;4238;48.404;9.498;2023-04-06T16:10:48;4.90;;;4.50;;
8401;SDS011;4238;48.404;9.498;2023-04-06T16:13:16;4.57;;;4.18;;
8401;SDS011;4238;48.404;9.498;2023-04-06T16:15:44;4.13;;;3.83;;
8401;SDS011;4238;48.404;9.498;2023-04-06T16:18:14;4.55;;;4.25;;
8401;SDS011;4238;48.404;9.498;2023-04-06T16:20:41;4.65;;;4.25;;
8401;SDS011;4238;48.404;9.498;2023-04-06T16:23:08;4.13;;;3.83;;
8401;SDS011;4238;48.404;9.498;2023-04-06T16:25:36;4.43;;;4.07;;
8401;SDS011;4238;48.404;9.498;2023-04-06T16:28:03;4.63;;;4.22;;
8401;SDS011;4238;48.404;9.498;2023-04-06T16:30:32;4.60;;;4.20;;
8401;SDS011;4238;48.404;9.498;2023-04-06T16:33:02;5.95;;;5.25;;
8401;SDS011;4238;48.404;9.498;2023-04-06T16:35:29;7.05;;;6.35;;
8401;SDS011;4238;48.404;9.498;2023-04-06T16:37:57;7.65;;;6.25;;
8401;SDS011;4238;48.404;9.498;2023-04-06T16:40:24;20.15;;;13.38;;
8401;SDS011;4238;48.404;9.498;2023-04-06T16:42:51;16.33;;;12.02;;
8401;SDS011;4238;48.404;9.498;2023-04-06T16:45:19;5.00;;;4.53;;
8401;SDS011;4238;48.404;9.498;2023-04-06T16:47:47;4.70;;;4.15;;
8401;SDS011;4238;48.404;9.498;2023-04-06T16:50:15;5.13;;;4.72;;
8401;SDS011;4238;48.404;9.498;2023-04-06T16:52:42;6.03;;;5.18;;
8401;SDS011;4238;48.404;9.498;2023-04-06T16:55:09;4.53;;;4.13;;
8401;SDS011;4238;48.404;9.498;2023-04-06T16:57:36;4.90;;;4.40;;
8401;SDS011;4238;48.404;9.498;2023-04-06T17:00:04;5.57;;;4.90;;
8401;SDS011;4238;48.404;9.498;2023-04-06T17:02:33;6.90;;;6.20;;
8401;SDS011;4238;48.404;9.498;2023-04-06T17:05:02;7.28;;;6.55;;
8401;SDS011;4238;48.404;9.498;2023-04-06T17:07:29;6.13;;;5.63;;
8401;SDS011;4238;48.404;9.498;2023-04-06T17:09:58;5.07;;;4.53;;
8401;SDS011;4238;48.404;9.498;2023-04-06T17:12:26;4.57;;;4.10;;
8401;SDS011;4238;48.404;9.498;2023-04-06T17:14:53;7.57;;;5.82;;
8401;SDS011;4238;48.404;9.498;2023-04-06T17:17:20;5.35;;;4.45;;
8401;SDS011;4238;48.404;9.498;2023-04-06T17:19:47;32.33;;;22.88;;
8401;SDS011;4238;48.404;9.498;2023-04-06T17:22:15;6.27;;;5.20;;
8401;SDS011;4238;48.404;9.498;2023-04-06T17:24:45;6.35;;;5.20;;
8401;SDS011;4238;48.404;9.498;2023-04-06T17:27:13;37.53;;;22.27;;
8401;SDS011;4238;48.404;9.498;2023-04-06T17:29:40;36.85;;;23.55;;
8401;SDS011;4238;48.404;9.498;2023-04-06T17:32:06;22.65;;;15.73;;
8401;SDS011;4238;48.404;9.498;2023-04-06T17:34:33;42.28;;;27.50;;
8401;SDS011;4238;48.404;9.498;2023-04-06T17:37:00;6.68;;;5.97;;
8401;SDS011;4238;48.404;9.498;2023-04-06T17:39:29;28.15;;;21.17;;
8401;SDS011;4238;48.404;9.498;2023-04-06T17:41:56;15.18;;;12.15;;
8401;SDS011;4238;48.404;9.498;2023-04-06T17:44:23;5.33;;;4.93;;
8401;SDS011;4238;48.404;9.498;2023-04-06T17:46:50;4.57;;;4.17;;
8401;SDS011;4238;48.404;9.498;2023-04-06T17:49:17;5.43;;;4.10;;
8401;SDS011;4238;48.404;9.498;2023-04-06T17:51:44;4.20;;;3.83;;
8401;SDS011;4238;48.404;9.498;2023-04-06T17:54:11;4.50;;;4.10;;
8401;SDS011;4238;48.404;9.498;2023-04-06T17:56:39;4.30;;;3.90;;
8401;SDS011;4238;48.404;9.498;2023-04-06T17:59:06;3.67;;;3.37;;
8401;SDS011;4238;48.404;9.498;2023-04-06T18:01:35;4.47;;;4.07;;
8401;SDS011;4238;48.404;9.498;2023-04-06T18:04:02;5.40;;;4.13;;
8401;SDS011;4238;48.404;9.498;2023-04-06T18:06:29;6.43;;;5.60;;
8401;SDS011;4238;48.404;9.498;2023-04-06T18:08:57;4.63;;;4.10;;
8401;SDS011;4238;48.404;9.498;2023-04-06T18:11:24;4.43;;;4.03;;
8401;SDS011;4238;48.404;9.498;2023-04-06T18:13:56;4.60;;;4.13;;
8401;SDS011;4238;48.404;9.498;2023-04-06T18:16:23;6.33;;;4.63;;
8401;SDS011;4238;48.404;9.498;2023-04-06T18:18:50;5.13;;;4.60;;
8401;SDS011;4238;48.404;9.498;2023-04-06T18:21:17;4.50;;;4.10;;
8401;SDS011;4238;48.404;9.498;2023-04-06T18:23:44;4.87;;;4.47;;
8401;SDS011;4238;48.404;9.498;2023-04-06T18:26:15;3.83;;;3.50;;
8401;SDS011;4238;48.404;9.498;2023-04-06T18:28:43;4.70;;;4.30;;
8401;SDS011;4238;48.404;9.498;2023-04-06T18:31:12;4.73;;;3.50;;
8401;SDS011;4238;48.404;9.498;2023-04-06T18:33:39;4.00;;;3.70;;
8401;SDS011;4238;48.404;9.498;2023-04-06T18:36:06;3.57;;;3.37;;
8401;SDS011;4238;48.404;9.498;2023-04-06T18:38:33;3.17;;;2.87;;
8401;SDS011;4238;48.404;9.498;2023-04-06T18:41:02;3.87;;;3.37;;
8401;SDS011;4238;48.404;9.498;2023-04-06T18:43:29;4.73;;;3.90;;
8401;SDS011;4238;48.404;9.498;2023-04-06T18:45:56;4.70;;;4.17;;
8401;SDS011;4238;48.404;9.498;2023-04-06T18:48:26;4.40;;;4.00;;
8401;SDS011;4238;48.404;9.498;2023-04-06T18:50:52;5.10;;;4.47;;
8401;SDS011;4238;48.404;9.498;2023-04-06T18:53:21;3.57;;;3.37;;
8401;SDS011;4238;48.404;9.498;2023-04-06T18:55:49;3.83;;;3.53;;
8401;SDS011;4238;48.404;9.498;2023-04-06T18:58:16;3.47;;;3.17;;
8401;SDS011;4238;48.404;9.498;2023-04-06T19:00:43;3.70;;;3.40;;
8401;SDS011;4238;48.404;9.498;2023-04-06T19:03:10;4.00;;;3.70;;
8401;SDS011;4238;48.404;9.498;2023-04-06T19:05:40;4.37;;;3.70;;
8401;SDS011;4238;48.404;9.498;2023-04-06T19:08:07;4.43;;;4.03;;
8401;SDS011;4238;48.404;9.498;2023-04-06T19:10:34;7.07;;;5.63;;
8401;SDS011;4238;48.404;9.498;2023-04-06T19:13:02;14.20;;;10.93;;
8401;SDS011;4238;48.404;9.498;2023-04-06T19:15:30;10.30;;;8.23;;
8401;SDS011;4238;48.404;9.498;2023-04-06T19:17:57;8.43;;;6.90;;
8401;SDS011;4238;48.404;9.498;2023-04-06T19:20:23;5.63;;;4.57;;
8401;SDS011;4238;48.404;9.498;2023-04-06T19:22:52;4.47;;;3.67;;
8401;SDS011;4238;48.404;9.498;2023-04-06T19:25:19;3.40;;;3.10;;
8401;SDS011;4238;48.404;9.498;2023-04-06T19:27:45;3.83;;;3.40;;
8401;SDS011;4238;48.404;9.498;2023-04-06T19:30:12;3.20;;;2.90;;
8401;SDS011;4238;48.404;9.498;2023-04-06T19:32:39;3.83;;;3.10;;
8401;SDS011;4238;48.404;9.498;2023-04-06T19:35:06;3.90;;;2.97;;
8401;SDS011;4238;48.404;9.498;2023-04-06T19:37:34;3.47;;;3.27;;
8401;SDS011;4238;48.404;9.498;2023-04-06T19:40:06;4.97;;;4.40;;
8401;SDS011;4238;48.404;9.498;2023-04-06T19:42:34;4.23;;;3.73;;
8401;SDS011;4238;48.404;9.498;2023-04-06T19:45:02;4.57;;;4.17;;
8401;SDS011;4238;48.404;9.498;2023-04-06T19:47:30;7.23;;;6.23;;
8401;SDS011;4238;48.404;9.498;2023-04-06T19:49:57;6.43;;;5.63;;
8401;SDS011;4238;48.404;9.498;2023-04-06T19:52:24;3.80;;;3.30;;
8401;SDS011;4238;48.404;9.498;2023-04-06T19:54:51;3.90;;;3.27;;
8401;SDS011;4238;48.404;9.498;2023-04-06T19:57:19;4.97;;;4.47;;
8401;SDS011;4238;48.404;9.498;2023-04-06T19:59:46;5.97;;;4.70;;
8401;SDS011;4238;48.404;9.498;2023-04-06T20:02:13;5.00;;;4.30;;
8401;SDS011;4238;48.404;9.498;2023-04-06T20:04:41;3.20;;;2.90;;
8401;SDS011;4238;48.404;9.498;2023-04-06T20:07:08;3.30;;;3.00;;
8401;SDS011;4238;48.404;9.498;2023-04-06T20:09:35;4.30;;;3.07;;
8401;SDS011;4238;48.404;9.498;2023-04-06T20:12:02;4.33;;;3.40;;
8401;SDS011;4238;48.404;9.498;2023-04-06T20:14:30;2.83;;;2.63;;
8401;SDS011;4238;48.404;9.498;2023-04-06T20:16:57;3.30;;;3.00;;
8401;SDS011;4238;48.404;9.498;2023-04-06T20:19:24;3.30;;;3.00;;
8401;SDS011;4238;48.404;9.498;2023-04-06T20:21:51;3.67;;;3.37;;
8401;SDS011;4238;48.404;9.498;2023-04-06T20:24:18;3.50;;;3.20;;
8401;SDS011;4238;48.404;9.498;2023-04-06T20:26:45;3.53;;;3.20;;
8401;SDS011;4238;48.404;9.498;2023-04-06T20:29:12;3.47;;;3.17;;
8401;SDS011;4238;48.404;9.498;2023-04-06T20:31:40;3.77;;;3.00;;
8401;SDS011;4238;48.404;9.498;2023-04-06T20:34:07;3.80;;;3.00;;
8401;SDS011;4238;48.404;9.498;2023-04-06T20:36:34;3.17;;;2.87;;
8401;SDS011;4238;48.404;9.498;2023-04-06T20:39:01;2.87;;;2.67;;
8401;SDS011;4238;48.404;9.498;2023-04-06T20:41:28;3.10;;;2.80;;
8401;SDS011;4238;48.404;9.498;2023-04-06T20:43:55;2.87;;;2.67;;
8401;SDS011;4238;48.404;9.498;2023-04-06T20:46:22;3.30;;;2.60;;
8401;SDS011;4238;48.404;9.498;2023-04-06T20:48:50;3.33;;;3.00;;
8401;SDS011;4238;48.404;9.498;2023-04-06T20:51:18;3.50;;;2.73;;
8401;SDS011;4238;48.404;9.498;2023-04-06T20:53:47;3.23;;;2.60;;
8401;SDS011;4238;48.404;9.498;2023-04-06T20:56:14;3.30;;;3.00;;
8401;SDS011;4238;48.404;9.498;2023-04-06T20:58:41;3.30;;;3.00;;
8401;SDS011;4238;48.404;9.498;2023-04-06T21:01:11;3.63;;;3.33;;